sensor_id;sensor_type;location;lat;lon;timestamp;P1;durP1;ratioP1;P2;durP2;ratioP2
48215;SDS011;34005;48.844;10.098;2022-07-10T00:02:01;2.95;;;2.75;;
48215;SDS011;34005;48.844;10.098;2022-07-10T00:04:29;3.65;;;2.78;;
48215;SDS011;34005;48.844;10.098;2022-07-10T00:06:57;3.28;;;3.00;;
48215;SDS011;34005;48.844;10.098;2022-07-10T00:09:25;3.80;;;2.80;;
48215;SDS011;34005;48.844;10.098;2022-07-10T00:11:55;3.60;;;2.60;;
48215;SDS011;34005;48.844;10.098;2022-07-10T00:14:23;3.85;;;2.70;;
48215;SDS011;34005;48.844;10.098;2022-07-10T00:16:51;3.22;;;2.92;;
48215;SDS011;34005;48.844;10.098;2022-07-10T00:19:19;2.95;;;2.55;;
48215;SDS011;34005;48.844;10.098;2022-07-10T00:21:47;4.70;;;2.97;;
48215;SDS011;34005;48.844;10.098;2022-07-10T00:24:15;3.13;;;2.72;;
48215;SDS011;34005;48.844;10.098;2022-07-10T00:26:43;3.33;;;3.00;;
48215;SDS011;34005;48.844;10.098;2022-07-10T00:29:12;2.85;;;2.55;;
48215;SDS011;34005;48.844;10.098;2022-07-10T00:31:40;2.90;;;2.70;;
48215;SDS011;34005;48.844;10.098;2022-07-10T00:34:08;2.35;;;2.17;;
48215;SDS011;34005;48.844;10.098;2022-07-10T00:36:35;3.25;;;2.67;;
48215;SDS011;34005;48.844;10.098;2022-07-10T00:39:03;6.07;;;2.60;;
48215;SDS011;34005;48.844;10.098;2022-07-10T00:41:32;3.20;;;2.75;;
48215;SDS011;34005;48.844;10.098;2022-07-10T00:44:00;3.17;;;2.97;;
48215;SDS011;34005;48.844;10.098;2022-07-10T00:46:31;2.83;;;2.63;;
48215;SDS011;34005;48.844;10.098;2022-07-10T00:48:59;3.00;;;2.70;;
48215;SDS011;34005;48.844;10.098;2022-07-10T00:51:27;3.65;;;3.33;;
48215;SDS011;34005;48.844;10.098;2022-07-10T00:53:56;3.25;;;3.05;;
48215;SDS011;34005;48.844;10.098;2022-07-10T00:56:25;2.80;;;2.58;;
48215;SDS011;34005;48.844;10.098;2022-07-10T00:58:53;3.20;;;3.00;;
48215;SDS011;34005;48.844;10.098;2022-07-10T01:01:22;2.92;;;2.67;;
48215;SDS011;34005;48.844;10.098;2022-07-10T01:03:52;3.13;;;2.83;;
48215;SDS011;34005;48.844;10.098;2022-07-10T01:06:19;3.28;;;3.08;;
48215;SDS011;34005;48.844;10.098;2022-07-10T01:08:47;3.22;;;3.03;;
48215;SDS011;34005;48.844;10.098;2022-07-10T01:11:15;5.28;;;3.20;;
48215;SDS011;34005;48.844;10.098;2022-07-10T01:13:43;4.15;;;3.53;;
48215;SDS011;34005;48.844;10.098;2022-07-10T01:16:11;6.80;;;3.45;;
48215;SDS011;34005;48.844;10.098;2022-07-10T01:18:39;5.07;;;3.53;;
48215;SDS011;34005;48.844;10.098;2022-07-10T01:23:53;3.65;;;3.30;;
48215;SDS011;34005;48.844;10.098;2022-07-10T01:26:20;3.70;;;3.40;;
48215;SDS011;34005;48.844;10.098;2022-07-10T01:28:50;3.50;;;3.20;;
48215;SDS011;34005;48.844;10.098;2022-07-10T01:31:19;3.70;;;3.40;;
48215;SDS011;34005;48.844;10.098;2022-07-10T01:33:47;3.47;;;3.15;;
48215;SDS011;34005;48.844;10.098;2022-07-10T01:36:15;3.63;;;3.30;;
48215;SDS011;34005;48.844;10.098;2022-07-10T01:38:45;4.50;;;3.60;;
48215;SDS011;34005;48.844;10.098;2022-07-10T01:41:13;4.20;;;3.40;;
48215;SDS011;34005;48.844;10.098;2022-07-10T01:43:41;3.85;;;3.45;;
48215;SDS011;34005;48.844;10.098;2022-07-10T01:46:11;5.30;;;3.55;;
48215;SDS011;34005;48.844;10.098;2022-07-10T01:48:39;4.93;;;3.70;;
48215;SDS011;34005;48.844;10.098;2022-07-10T01:51:07;6.30;;;4.15;;
48215;SDS011;34005;48.844;10.098;2022-07-10T01:53:37;4.72;;;3.90;;
48215;SDS011;34005;48.844;10.098;2022-07-10T01:56:07;3.28;;;2.97;;
48215;SDS011;34005;48.844;10.098;2022-07-10T01:58:35;6.63;;;4.60;;
48215;SDS011;34005;48.844;10.098;2022-07-10T02:01:04;4.32;;;3.92;;
48215;SDS011;34005;48.844;10.098;2022-07-10T02:03:32;4.45;;;4.05;;
48215;SDS011;34005;48.844;10.098;2022-07-10T02:06:20;4.70;;;4.30;;
48215;SDS011;34005;48.844;10.098;2022-07-10T02:08:47;4.88;;;4.40;;
48215;SDS011;34005;48.844;10.098;2022-07-10T02:11:16;3.42;;;3.20;;
48215;SDS011;34005;48.844;10.098;2022-07-10T02:13:44;4.57;;;4.18;;
48215;SDS011;34005;48.844;10.098;2022-07-10T02:16:12;5.10;;;4.20;;
48215;SDS011;34005;48.844;10.098;2022-07-10T02:18:40;5.28;;;4.57;;
48215;SDS011;34005;48.844;10.098;2022-07-10T02:21:09;4.45;;;3.85;;
48215;SDS011;34005;48.844;10.098;2022-07-10T02:23:36;5.45;;;4.47;;
48215;SDS011;34005;48.844;10.098;2022-07-10T02:26:07;3.67;;;3.38;;
48215;SDS011;34005;48.844;10.098;2022-07-10T02:28:36;6.38;;;4.20;;
48215;SDS011;34005;48.844;10.098;2022-07-10T02:31:04;5.63;;;4.43;;
48215;SDS011;34005;48.844;10.098;2022-07-10T02:33:32;4.32;;;4.03;;
48215;SDS011;34005;48.844;10.098;2022-07-10T02:36:00;4.15;;;3.45;;
48215;SDS011;34005;48.844;10.098;2022-07-10T02:38:28;5.22;;;4.35;;
48215;SDS011;34005;48.844;10.098;2022-07-10T02:40:55;4.47;;;4.07;;
48215;SDS011;34005;48.844;10.098;2022-07-10T02:43:23;4.50;;;4.13;;
48215;SDS011;34005;48.844;10.098;2022-07-10T02:45:52;5.13;;;4.57;;
48215;SDS011;34005;48.844;10.098;2022-07-10T02:48:20;4.68;;;3.97;;
48215;SDS011;34005;48.844;10.098;2022-07-10T02:50:47;5.28;;;4.30;;
48215;SDS011;34005;48.844;10.098;2022-07-10T02:53:15;5.10;;;4.47;;
48215;SDS011;34005;48.844;10.098;2022-07-10T02:55:43;4.43;;;4.03;;
48215;SDS011;34005;48.844;10.098;2022-07-10T02:58:11;4.20;;;3.90;;
48215;SDS011;34005;48.844;10.098;2022-07-10T03:00:38;4.95;;;4.47;;
48215;SDS011;34005;48.844;10.098;2022-07-10T03:03:09;4.15;;;3.85;;
48215;SDS011;34005;48.844;10.098;2022-07-10T03:05:36;5.22;;;4.82;;
48215;SDS011;34005;48.844;10.098;2022-07-10T03:08:04;4.95;;;4.07;;
48215;SDS011;34005;48.844;10.098;2022-07-10T03:10:32;4.70;;;3.83;;
48215;SDS011;34005;48.844;10.098;2022-07-10T03:12:59;4.47;;;4.05;;
48215;SDS011;34005;48.844;10.098;2022-07-10T03:15:27;6.90;;;4.97;;
48215;SDS011;34005;48.844;10.098;2022-07-10T03:17:55;5.60;;;5.10;;
48215;SDS011;34005;48.844;10.098;2022-07-10T03:20:24;5.97;;;5.15;;
48215;SDS011;34005;48.844;10.098;2022-07-10T03:22:52;5.80;;;4.90;;
48215;SDS011;34005;48.844;10.098;2022-07-10T03:25:20;4.78;;;4.35;;
48215;SDS011;34005;48.844;10.098;2022-07-10T03:27:48;4.70;;;4.30;;
48215;SDS011;34005;48.844;10.098;2022-07-10T03:30:15;4.57;;;4.18;;
48215;SDS011;34005;48.844;10.098;2022-07-10T03:32:43;6.25;;;4.50;;
48215;SDS011;34005;48.844;10.098;2022-07-10T03:35:10;5.20;;;4.68;;
48215;SDS011;34005;48.844;10.098;2022-07-10T03:37:39;5.75;;;4.43;;
48215;SDS011;34005;48.844;10.098;2022-07-10T03:40:08;5.07;;;4.57;;
48215;SDS011;34005;48.844;10.098;2022-07-10T03:42:36;5.40;;;4.90;;
48215;SDS011;34005;48.844;10.098;2022-07-10T03:45:04;6.22;;;5.40;;
48215;SDS011;34005;48.844;10.098;2022-07-10T03:47:33;5.25;;;4.82;;
48215;SDS011;34005;48.844;10.098;2022-07-10T03:50:00;4.80;;;4.30;;
48215;SDS011;34005;48.844;10.098;2022-07-10T03:52:28;4.95;;;4.55;;
48215;SDS011;34005;48.844;10.098;2022-07-10T03:54:57;10.73;;;5.53;;
48215;SDS011;34005;48.844;10.098;2022-07-10T03:57:25;6.10;;;5.60;;
48215;SDS011;34005;48.844;10.098;2022-07-10T04:00:10;4.90;;;4.50;;
48215;SDS011;34005;48.844;10.098;2022-07-10T04:02:38;6.97;;;5.65;;
48215;SDS011;34005;48.844;10.098;2022-07-10T04:05:07;4.60;;;4.20;;
48215;SDS011;34005;48.844;10.098;2022-07-10T04:07:35;5.20;;;4.70;;
48215;SDS011;34005;48.844;10.098;2022-07-10T04:10:06;6.25;;;4.80;;
48215;SDS011;34005;48.844;10.098;2022-07-10T04:12:36;5.57;;;5.07;;
48215;SDS011;34005;48.844;10.098;2022-07-10T04:15:04;6.75;;;5.20;;
48215;SDS011;34005;48.844;10.098;2022-07-10T04:17:32;5.03;;;4.53;;
48215;SDS011;34005;48.844;10.098;2022-07-10T04:20:00;5.45;;;4.65;;
48215;SDS011;34005;48.844;10.098;2022-07-10T04:22:28;4.97;;;4.57;;
48215;SDS011;34005;48.844;10.098;2022-07-10T04:24:55;7.10;;;4.72;;
48215;SDS011;34005;48.844;10.098;2022-07-10T04:27:25;6.97;;;4.50;;
48215;SDS011;34005;48.844;10.098;2022-07-10T04:29:52;6.13;;;4.45;;
48215;SDS011;34005;48.844;10.098;2022-07-10T04:32:20;6.45;;;4.80;;
48215;SDS011;34005;48.844;10.098;2022-07-10T04:34:48;7.10;;;4.47;;
48215;SDS011;34005;48.844;10.098;2022-07-10T04:37:16;4.95;;;4.55;;
48215;SDS011;34005;48.844;10.098;2022-07-10T04:39:44;5.00;;;4.22;;
48215;SDS011;34005;48.844;10.098;2022-07-10T04:42:11;4.20;;;3.78;;
48215;SDS011;34005;48.844;10.098;2022-07-10T04:44:41;6.15;;;4.32;;
48215;SDS011;34005;48.844;10.098;2022-07-10T04:47:08;4.25;;;3.90;;
48215;SDS011;34005;48.844;10.098;2022-07-10T04:49:36;4.45;;;3.20;;
48215;SDS011;34005;48.844;10.098;2022-07-10T04:52:04;4.03;;;3.63;;
48215;SDS011;34005;48.844;10.098;2022-07-10T04:54:32;4.38;;;4.07;;
48215;SDS011;34005;48.844;10.098;2022-07-10T04:57:00;5.03;;;4.47;;
48215;SDS011;34005;48.844;10.098;2022-07-10T04:59:27;7.43;;;5.50;;
48215;SDS011;34005;48.844;10.098;2022-07-10T05:01:57;5.38;;;4.68;;
48215;SDS011;34005;48.844;10.098;2022-07-10T05:04:25;5.75;;;4.13;;
48215;SDS011;34005;48.844;10.098;2022-07-10T05:06:52;6.30;;;4.70;;
48215;SDS011;34005;48.844;10.098;2022-07-10T05:09:20;6.97;;;4.20;;
48215;SDS011;34005;48.844;10.098;2022-07-10T05:11:48;4.65;;;4.25;;
48215;SDS011;34005;48.844;10.098;2022-07-10T05:14:15;7.68;;;3.60;;
48215;SDS011;34005;48.844;10.098;2022-07-10T05:16:43;5.90;;;3.33;;
48215;SDS011;34005;48.844;10.098;2022-07-10T05:19:12;4.28;;;3.90;;
48215;SDS011;34005;48.844;10.098;2022-07-10T05:21:40;6.80;;;4.32;;
48215;SDS011;34005;48.844;10.098;2022-07-10T05:24:08;5.93;;;4.00;;
48215;SDS011;34005;48.844;10.098;2022-07-10T05:26:35;4.40;;;4.00;;
48215;SDS011;34005;48.844;10.098;2022-07-10T05:29:03;4.25;;;3.22;;
48215;SDS011;34005;48.844;10.098;2022-07-10T05:31:31;7.22;;;4.00;;
48215;SDS011;34005;48.844;10.098;2022-07-10T05:33:59;5.47;;;3.40;;
48215;SDS011;34005;48.844;10.098;2022-07-10T05:36:28;7.20;;;3.40;;
48215;SDS011;34005;48.844;10.098;2022-07-10T05:38:55;5.13;;;3.13;;
48215;SDS011;34005;48.844;10.098;2022-07-10T05:41:23;3.60;;;3.10;;
48215;SDS011;34005;48.844;10.098;2022-07-10T05:43:51;3.67;;;3.17;;
48215;SDS011;34005;48.844;10.098;2022-07-10T05:46:18;3.55;;;3.25;;
48215;SDS011;34005;48.844;10.098;2022-07-10T05:48:46;4.43;;;3.03;;
48215;SDS011;34005;48.844;10.098;2022-07-10T05:51:14;2.95;;;2.50;;
48215;SDS011;34005;48.844;10.098;2022-07-10T05:53:58;4.15;;;2.95;;
48215;SDS011;34005;48.844;10.098;2022-07-10T05:56:26;3.72;;;3.17;;
48215;SDS011;34005;48.844;10.098;2022-07-10T05:58:54;3.38;;;3.05;;
48215;SDS011;34005;48.844;10.098;2022-07-10T06:01:22;4.03;;;3.00;;
48215;SDS011;34005;48.844;10.098;2022-07-10T06:03:50;5.93;;;3.00;;
48215;SDS011;34005;48.844;10.098;2022-07-10T06:06:18;4.82;;;2.95;;
48215;SDS011;34005;48.844;10.098;2022-07-10T06:08:46;7.85;;;3.00;;
48215;SDS011;34005;48.844;10.098;2022-07-10T06:11:15;4.15;;;3.00;;
48215;SDS011;34005;48.844;10.098;2022-07-10T06:13:43;5.28;;;3.17;;
48215;SDS011;34005;48.844;10.098;2022-07-10T06:16:10;4.80;;;2.83;;
48215;SDS011;34005;48.844;10.098;2022-07-10T06:18:38;4.72;;;2.85;;
48215;SDS011;34005;48.844;10.098;2022-07-10T06:21:07;3.47;;;2.35;;
48215;SDS011;34005;48.844;10.098;2022-07-10T06:23:35;3.20;;;2.40;;
48215;SDS011;34005;48.844;10.098;2022-07-10T06:26:02;4.05;;;2.60;;
48215;SDS011;34005;48.844;10.098;2022-07-10T06:28:33;3.83;;;2.60;;
48215;SDS011;34005;48.844;10.098;2022-07-10T06:31:02;2.58;;;1.95;;
48215;SDS011;34005;48.844;10.098;2022-07-10T06:33:29;5.30;;;2.67;;
48215;SDS011;34005;48.844;10.098;2022-07-10T06:35:58;5.10;;;1.75;;
48215;SDS011;34005;48.844;10.098;2022-07-10T06:38:25;4.65;;;2.00;;
48215;SDS011;34005;48.844;10.098;2022-07-10T06:40:53;3.63;;;2.10;;
48215;SDS011;34005;48.844;10.098;2022-07-10T06:43:21;2.30;;;1.95;;
48215;SDS011;34005;48.844;10.098;2022-07-10T06:45:50;4.97;;;1.83;;
48215;SDS011;34005;48.844;10.098;2022-07-10T06:48:18;4.55;;;2.40;;
48215;SDS011;34005;48.844;10.098;2022-07-10T06:50:45;3.90;;;1.75;;
48215;SDS011;34005;48.844;10.098;2022-07-10T06:53:12;3.22;;;1.40;;
48215;SDS011;34005;48.844;10.098;2022-07-10T06:55:41;3.05;;;1.38;;
48215;SDS011;34005;48.844;10.098;2022-07-10T06:58:09;2.65;;;1.30;;
48215;SDS011;34005;48.844;10.098;2022-07-10T07:00:37;3.17;;;1.27;;
48215;SDS011;34005;48.844;10.098;2022-07-10T07:03:06;3.05;;;1.13;;
48215;SDS011;34005;48.844;10.098;2022-07-10T07:05:33;5.43;;;1.23;;
48215;SDS011;34005;48.844;10.098;2022-07-10T07:08:01;3.28;;;1.40;;
48215;SDS011;34005;48.844;10.098;2022-07-10T07:10:28;2.03;;;1.20;;
48215;SDS011;34005;48.844;10.098;2022-07-10T07:12:56;2.67;;;1.17;;
48215;SDS011;34005;48.844;10.098;2022-07-10T07:15:25;3.30;;;1.20;;
48215;SDS011;34005;48.844;10.098;2022-07-10T07:17:53;4.40;;;1.75;;
48215;SDS011;34005;48.844;10.098;2022-07-10T07:20:35;2.67;;;1.08;;
48215;SDS011;34005;48.844;10.098;2022-07-10T07:23:21;2.45;;;0.90;;
48215;SDS011;34005;48.844;10.098;2022-07-10T07:25:49;1.58;;;0.90;;
48215;SDS011;34005;48.844;10.098;2022-07-10T07:28:17;2.92;;;1.00;;
48215;SDS011;34005;48.844;10.098;2022-07-10T07:30:46;3.08;;;1.00;;
48215;SDS011;34005;48.844;10.098;2022-07-10T07:33:14;2.70;;;1.00;;
48215;SDS011;34005;48.844;10.098;2022-07-10T07:35:44;2.08;;;0.93;;
48215;SDS011;34005;48.844;10.098;2022-07-10T07:38:12;1.90;;;0.82;;
48215;SDS011;34005;48.844;10.098;2022-07-10T07:40:39;1.45;;;0.70;;
48215;SDS011;34005;48.844;10.098;2022-07-10T07:43:07;1.35;;;0.70;;
48215;SDS011;34005;48.844;10.098;2022-07-10T07:45:35;4.00;;;1.00;;
48215;SDS011;34005;48.844;10.098;2022-07-10T07:48:02;2.50;;;1.02;;
48215;SDS011;34005;48.844;10.098;2022-07-10T07:50:31;1.25;;;0.65;;
48215;SDS011;34005;48.844;10.098;2022-07-10T07:53:02;2.22;;;0.75;;
48215;SDS011;34005;48.844;10.098;2022-07-10T07:55:31;2.60;;;0.80;;
48215;SDS011;34005;48.844;10.098;2022-07-10T07:58:00;2.17;;;0.68;;
48215;SDS011;34005;48.844;10.098;2022-07-10T08:00:29;1.23;;;0.70;;
48215;SDS011;34005;48.844;10.098;2022-07-10T08:02:57;2.00;;;0.90;;
48215;SDS011;34005;48.844;10.098;2022-07-10T08:05:27;3.38;;;1.48;;
48215;SDS011;34005;48.844;10.098;2022-07-10T08:07:56;3.38;;;0.85;;
48215;SDS011;34005;48.844;10.098;2022-07-10T08:10:26;4.70;;;1.05;;
48215;SDS011;34005;48.844;10.098;2022-07-10T08:12:54;1.48;;;0.90;;
48215;SDS011;34005;48.844;10.098;2022-07-10T08:15:22;3.40;;;0.82;;
48215;SDS011;34005;48.844;10.098;2022-07-10T08:17:51;1.25;;;0.60;;
48215;SDS011;34005;48.844;10.098;2022-07-10T08:20:21;4.38;;;1.00;;
48215;SDS011;34005;48.844;10.098;2022-07-10T08:22:50;2.28;;;0.70;;
48215;SDS011;34005;48.844;10.098;2022-07-10T08:25:26;2.92;;;0.80;;
48215;SDS011;34005;48.844;10.098;2022-07-10T08:27:59;2.67;;;0.82;;
48215;SDS011;34005;48.844;10.098;2022-07-10T08:30:27;3.10;;;1.10;;
48215;SDS011;34005;48.844;10.098;2022-07-10T08:32:55;1.98;;;0.80;;
48215;SDS011;34005;48.844;10.098;2022-07-10T08:35:22;4.05;;;0.68;;
48215;SDS011;34005;48.844;10.098;2022-07-10T08:37:50;3.72;;;0.88;;
48215;SDS011;34005;48.844;10.098;2022-07-10T08:40:19;2.10;;;0.80;;
48215;SDS011;34005;48.844;10.098;2022-07-10T08:42:50;4.82;;;0.60;;
48215;SDS011;34005;48.844;10.098;2022-07-10T08:45:18;2.22;;;1.00;;
48215;SDS011;34005;48.844;10.098;2022-07-10T08:47:46;3.78;;;0.88;;
48215;SDS011;34005;48.844;10.098;2022-07-10T08:50:16;2.95;;;0.80;;
48215;SDS011;34005;48.844;10.098;2022-07-10T08:52:48;3.00;;;0.80;;
48215;SDS011;34005;48.844;10.098;2022-07-10T08:55:23;2.28;;;0.90;;
48215;SDS011;34005;48.844;10.098;2022-07-10T08:57:52;3.20;;;0.88;;
48215;SDS011;34005;48.844;10.098;2022-07-10T09:00:21;2.70;;;0.70;;
48215;SDS011;34005;48.844;10.098;2022-07-10T09:02:49;5.57;;;0.60;;
48215;SDS011;34005;48.844;10.098;2022-07-10T09:05:17;2.40;;;1.05;;
48215;SDS011;34005;48.844;10.098;2022-07-10T09:07:45;1.75;;;0.90;;
48215;SDS011;34005;48.844;10.098;2022-07-10T09:10:13;2.38;;;0.70;;
48215;SDS011;34005;48.844;10.098;2022-07-10T09:12:49;3.50;;;0.90;;
48215;SDS011;34005;48.844;10.098;2022-07-10T09:15:20;2.03;;;0.70;;
48215;SDS011;34005;48.844;10.098;2022-07-10T09:17:49;3.05;;;1.05;;
48215;SDS011;34005;48.844;10.098;2022-07-10T09:20:25;3.80;;;1.02;;
48215;SDS011;34005;48.844;10.098;2022-07-10T09:22:58;1.63;;;0.77;;
48215;SDS011;34005;48.844;10.098;2022-07-10T09:25:30;2.33;;;0.60;;
48215;SDS011;34005;48.844;10.098;2022-07-10T09:28:01;2.65;;;0.80;;
48215;SDS011;34005;48.844;10.098;2022-07-10T09:30:34;4.68;;;0.90;;
48215;SDS011;34005;48.844;10.098;2022-07-10T09:33:16;3.42;;;0.80;;
48215;SDS011;34005;48.844;10.098;2022-07-10T09:36:01;1.73;;;0.68;;
48215;SDS011;34005;48.844;10.098;2022-07-10T09:38:53;4.22;;;1.00;;
48215;SDS011;34005;48.844;10.098;2022-07-10T09:41:24;4.28;;;1.35;;
48215;SDS011;34005;48.844;10.098;2022-07-10T09:43:54;2.17;;;0.88;;
48215;SDS011;34005;48.844;10.098;2022-07-10T09:46:24;4.70;;;0.85;;
48215;SDS011;34005;48.844;10.098;2022-07-10T09:49:06;2.40;;;0.75;;
48215;SDS011;34005;48.844;10.098;2022-07-10T09:51:36;2.72;;;0.90;;
48215;SDS011;34005;48.844;10.098;2022-07-10T09:54:13;1.77;;;0.77;;
48215;SDS011;34005;48.844;10.098;2022-07-10T09:56:41;2.83;;;0.80;;
48215;SDS011;34005;48.844;10.098;2022-07-10T09:59:10;2.30;;;0.60;;
48215;SDS011;34005;48.844;10.098;2022-07-10T10:01:44;2.53;;;1.00;;
48215;SDS011;34005;48.844;10.098;2022-07-10T10:04:13;1.40;;;0.68;;
48215;SDS011;34005;48.844;10.098;2022-07-10T10:06:42;2.67;;;0.60;;
48215;SDS011;34005;48.844;10.098;2022-07-10T10:09:12;2.58;;;0.95;;
48215;SDS011;34005;48.844;10.098;2022-07-10T10:11:46;0.93;;;0.80;;
48215;SDS011;34005;48.844;10.098;2022-07-10T10:14:14;0.95;;;0.63;;
48215;SDS011;34005;48.844;10.098;2022-07-10T10:16:47;2.13;;;0.70;;
48215;SDS011;34005;48.844;10.098;2022-07-10T10:19:15;3.90;;;0.88;;
48215;SDS011;34005;48.844;10.098;2022-07-10T10:22:03;5.82;;;1.35;;
48215;SDS011;34005;48.844;10.098;2022-07-10T10:24:31;2.75;;;0.93;;
48215;SDS011;34005;48.844;10.098;2022-07-10T10:26:59;2.97;;;1.40;;
48215;SDS011;34005;48.844;10.098;2022-07-10T10:29:28;4.25;;;2.08;;
48215;SDS011;34005;48.844;10.098;2022-07-10T10:31:58;4.82;;;2.75;;
48215;SDS011;34005;48.844;10.098;2022-07-10T10:34:42;7.20;;;2.80;;
48215;SDS011;34005;48.844;10.098;2022-07-10T10:40:02;3.88;;;1.60;;
48215;SDS011;34005;48.844;10.098;2022-07-10T10:42:33;7.05;;;2.75;;
48215;SDS011;34005;48.844;10.098;2022-07-10T10:47:57;7.00;;;3.03;;
48215;SDS011;34005;48.844;10.098;2022-07-10T10:50:46;3.13;;;1.02;;
48215;SDS011;34005;48.844;10.098;2022-07-10T10:53:15;2.38;;;1.00;;
48215;SDS011;34005;48.844;10.098;2022-07-10T10:58:50;1.50;;;0.80;;
48215;SDS011;34005;48.844;10.098;2022-07-10T11:01:26;4.57;;;0.80;;
48215;SDS011;34005;48.844;10.098;2022-07-10T11:06:50;1.33;;;0.52;;
48215;SDS011;34005;48.844;10.098;2022-07-10T11:09:22;3.95;;;0.88;;
48215;SDS011;34005;48.844;10.098;2022-07-10T11:11:58;1.67;;;0.47;;
48215;SDS011;34005;48.844;10.098;2022-07-10T11:14:27;3.47;;;0.70;;
48215;SDS011;34005;48.844;10.098;2022-07-10T11:16:56;1.75;;;0.90;;
48215;SDS011;34005;48.844;10.098;2022-07-10T11:19:25;1.63;;;0.50;;
48215;SDS011;34005;48.844;10.098;2022-07-10T11:21:58;1.13;;;0.60;;
48215;SDS011;34005;48.844;10.098;2022-07-10T11:24:48;0.52;;;0.50;;
48215;SDS011;34005;48.844;10.098;2022-07-10T11:27:26;2.50;;;0.60;;
48215;SDS011;34005;48.844;10.098;2022-07-10T11:30:00;3.83;;;0.85;;
48215;SDS011;34005;48.844;10.098;2022-07-10T11:32:28;0.90;;;0.50;;
48215;SDS011;34005;48.844;10.098;2022-07-10T11:34:57;1.63;;;0.70;;
48215;SDS011;34005;48.844;10.098;2022-07-10T11:37:26;1.55;;;0.60;;
48215;SDS011;34005;48.844;10.098;2022-07-10T11:40:09;1.77;;;0.65;;
48215;SDS011;34005;48.844;10.098;2022-07-10T11:42:47;1.70;;;0.70;;
48215;SDS011;34005;48.844;10.098;2022-07-10T11:45:23;1.13;;;0.50;;
48215;SDS011;34005;48.844;10.098;2022-07-10T11:47:52;2.28;;;0.73;;
48215;SDS011;34005;48.844;10.098;2022-07-10T11:50:21;2.78;;;0.70;;
48215;SDS011;34005;48.844;10.098;2022-07-10T11:52:48;1.50;;;0.45;;
48215;SDS011;34005;48.844;10.098;2022-07-10T11:55:17;1.83;;;0.40;;
48215;SDS011;34005;48.844;10.098;2022-07-10T11:57:46;0.68;;;0.50;;
48215;SDS011;34005;48.844;10.098;2022-07-10T12:00:22;1.88;;;0.77;;
48215;SDS011;34005;48.844;10.098;2022-07-10T12:02:50;1.38;;;0.50;;
48215;SDS011;34005;48.844;10.098;2022-07-10T12:05:33;1.70;;;0.63;;
48215;SDS011;34005;48.844;10.098;2022-07-10T12:08:01;0.95;;;0.50;;
48215;SDS011;34005;48.844;10.098;2022-07-10T12:10:31;0.40;;;0.40;;
48215;SDS011;34005;48.844;10.098;2022-07-10T12:13:04;1.55;;;0.60;;
48215;SDS011;34005;48.844;10.098;2022-07-10T12:15:33;1.08;;;0.50;;
48215;SDS011;34005;48.844;10.098;2022-07-10T12:18:04;2.75;;;0.50;;
48215;SDS011;34005;48.844;10.098;2022-07-10T12:20:34;1.67;;;0.35;;
48215;SDS011;34005;48.844;10.098;2022-07-10T12:23:04;1.17;;;0.50;;
48215;SDS011;34005;48.844;10.098;2022-07-10T12:25:32;0.63;;;0.50;;
48215;SDS011;34005;48.844;10.098;2022-07-10T12:27:59;1.90;;;0.40;;
48215;SDS011;34005;48.844;10.098;2022-07-10T12:30:37;1.00;;;0.63;;
48215;SDS011;34005;48.844;10.098;2022-07-10T12:33:09;0.88;;;0.32;;
48215;SDS011;34005;48.844;10.098;2022-07-10T12:35:50;1.20;;;0.30;;
48215;SDS011;34005;48.844;10.098;2022-07-10T12:38:19;1.30;;;0.35;;
48215;SDS011;34005;48.844;10.098;2022-07-10T12:40:47;1.23;;;0.57;;
48215;SDS011;34005;48.844;10.098;2022-07-10T12:43:25;1.15;;;0.40;;
48215;SDS011;34005;48.844;10.098;2022-07-10T12:46:07;3.70;;;0.47;;
48215;SDS011;34005;48.844;10.098;2022-07-10T12:48:36;2.63;;;0.90;;
48215;SDS011;34005;48.844;10.098;2022-07-10T12:53:52;3.63;;;0.75;;
48215;SDS011;34005;48.844;10.098;2022-07-10T12:56:30;0.40;;;0.40;;
48215;SDS011;34005;48.844;10.098;2022-07-10T12:59:00;1.90;;;1.08;;
48215;SDS011;34005;48.844;10.098;2022-07-10T13:01:40;1.80;;;0.47;;
48215;SDS011;34005;48.844;10.098;2022-07-10T13:06:38;4.18;;;0.60;;
48215;SDS011;34005;48.844;10.098;2022-07-10T13:09:19;1.33;;;0.60;;
48215;SDS011;34005;48.844;10.098;2022-07-10T13:11:49;2.53;;;0.63;;
48215;SDS011;34005;48.844;10.098;2022-07-10T13:14:17;0.32;;;0.20;;
48215;SDS011;34005;48.844;10.098;2022-07-10T13:16:45;1.27;;;0.43;;
48215;SDS011;34005;48.844;10.098;2022-07-10T13:19:13;1.40;;;0.40;;
48215;SDS011;34005;48.844;10.098;2022-07-10T13:21:42;1.13;;;0.22;;
48215;SDS011;34005;48.844;10.098;2022-07-10T13:24:10;2.03;;;0.43;;
48215;SDS011;34005;48.844;10.098;2022-07-10T13:26:37;0.55;;;0.30;;
48215;SDS011;34005;48.844;10.098;2022-07-10T13:29:05;1.85;;;0.57;;
48215;SDS011;34005;48.844;10.098;2022-07-10T13:31:33;2.50;;;0.50;;
48215;SDS011;34005;48.844;10.098;2022-07-10T13:34:01;3.17;;;0.30;;
48215;SDS011;34005;48.844;10.098;2022-07-10T13:36:28;0.90;;;0.32;;
48215;SDS011;34005;48.844;10.098;2022-07-10T13:38:58;2.22;;;0.50;;
48215;SDS011;34005;48.844;10.098;2022-07-10T13:41:26;1.83;;;0.30;;
48215;SDS011;34005;48.844;10.098;2022-07-10T13:43:53;3.25;;;0.70;;
48215;SDS011;34005;48.844;10.098;2022-07-10T13:46:21;1.27;;;0.38;;
48215;SDS011;34005;48.844;10.098;2022-07-10T13:48:49;0.85;;;0.38;;
48215;SDS011;34005;48.844;10.098;2022-07-10T13:51:17;1.33;;;0.80;;
48215;SDS011;34005;48.844;10.098;2022-07-10T13:53:44;4.13;;;0.40;;
48215;SDS011;34005;48.844;10.098;2022-07-10T13:56:13;1.75;;;0.60;;
48215;SDS011;34005;48.844;10.098;2022-07-10T13:58:42;1.75;;;0.50;;
48215;SDS011;34005;48.844;10.098;2022-07-10T14:01:10;2.08;;;0.60;;
48215;SDS011;34005;48.844;10.098;2022-07-10T14:03:37;2.22;;;0.50;;
48215;SDS011;34005;48.844;10.098;2022-07-10T14:06:05;3.08;;;0.80;;
48215;SDS011;34005;48.844;10.098;2022-07-10T14:08:34;0.70;;;0.30;;
48215;SDS011;34005;48.844;10.098;2022-07-10T14:11:01;1.40;;;0.45;;
48215;SDS011;34005;48.844;10.098;2022-07-10T14:13:30;1.55;;;0.30;;
48215;SDS011;34005;48.844;10.098;2022-07-10T14:15:58;2.08;;;0.50;;
48215;SDS011;34005;48.844;10.098;2022-07-10T14:18:26;0.30;;;0.30;;
48215;SDS011;34005;48.844;10.098;2022-07-10T14:21:06;2.38;;;0.40;;
48215;SDS011;34005;48.844;10.098;2022-07-10T14:23:36;0.65;;;0.28;;
48215;SDS011;34005;48.844;10.098;2022-07-10T14:26:07;1.13;;;0.40;;
48215;SDS011;34005;48.844;10.098;2022-07-10T14:28:36;1.90;;;0.60;;
48215;SDS011;34005;48.844;10.098;2022-07-10T14:31:05;2.08;;;0.38;;
48215;SDS011;34005;48.844;10.098;2022-07-10T14:33:34;0.88;;;0.28;;
48215;SDS011;34005;48.844;10.098;2022-07-10T14:36:03;2.15;;;0.55;;
48215;SDS011;34005;48.844;10.098;2022-07-10T14:38:31;1.60;;;0.35;;
48215;SDS011;34005;48.844;10.098;2022-07-10T14:40:59;0.65;;;0.38;;
48215;SDS011;34005;48.844;10.098;2022-07-10T14:43:26;1.40;;;0.57;;
48215;SDS011;34005;48.844;10.098;2022-07-10T14:45:56;0.57;;;0.38;;
48215;SDS011;34005;48.844;10.098;2022-07-10T14:48:28;0.50;;;0.38;;
48215;SDS011;34005;48.844;10.098;2022-07-10T14:50:57;0.45;;;0.40;;
48215;SDS011;34005;48.844;10.098;2022-07-10T14:53:24;0.77;;;0.30;;
48215;SDS011;34005;48.844;10.098;2022-07-10T14:55:52;0.68;;;0.25;;
48215;SDS011;34005;48.844;10.098;2022-07-10T14:58:20;1.63;;;0.40;;
48215;SDS011;34005;48.844;10.098;2022-07-10T15:00:47;1.73;;;0.30;;
48215;SDS011;34005;48.844;10.098;2022-07-10T15:03:16;0.98;;;0.47;;
48215;SDS011;34005;48.844;10.098;2022-07-10T15:05:44;2.67;;;0.30;;
48215;SDS011;34005;48.844;10.098;2022-07-10T15:08:11;0.73;;;0.35;;